Time;durP1;ratioP1;P1;durP2;ratioP2;P2;SDS_P1;SDS_P2;PMS_P1;PMS_P2;Temp;Humidity;BMP_temperature;BMP_pressure;BME280_temperature;BME280_humidity;BME280_pressure;Samples;Min_cycle;Max_cycle;Signal;HPM_P1;HPM_P2
2022/12/18 00:01:25;;;;;;;73.38;26.05;;;3.20;68.00;;;;;;7390969;19;20015;-81
2022/12/18 00:03:58;;;;;;;70.32;25.88;;;3.20;67.80;;;;;;7372515;19;20016;-81
2022/12/18 00:06:29;;;;;;;79.38;26.10;;;3.10;67.60;;;;;;7370176;19;20428;-82
2022/12/18 00:09:00;;;;;;;74.13;24.92;;;3.00;67.90;;;;;;7372446;19;20045;-81
2022/12/18 00:11:33;;;;;;;69.28;25.20;;;3.00;68.00;;;;;;7373979;19;20036;-80
2022/12/18 00:14:03;;;;;;;66.93;24.75;;;3.00;68.30;;;;;;7370774;19;20023;-81
2022/12/18 00:16:35;;;;;;;68.50;25.33;;;3.00;68.40;;;;;;7371405;19;20452;-80
2022/12/18 00:19:04;;;;;;;66.72;25.35;;;3.00;68.30;;;;;;7389805;19;20030;-80
2022/12/18 00:21:41;;;;;;;76.20;27.08;;;2.90;68.20;;;;;;7366934;19;20063;-81
2022/12/18 00:24:14;;;;;;;74.97;25.70;;;2.90;68.30;;;;;;7368287;19;20014;-80
2022/12/18 00:26:47;;;;;;;75.22;26.83;;;2.90;68.30;;;;;;7366613;19;20046;-81
2022/12/18 00:29:19;;;;;;;77.95;26.60;;;2.80;68.30;;;;;;7369882;19;20010;-81
2022/12/18 00:31:48;;;;;;;71.57;26.88;;;2.90;68.60;;;;;;7367165;19;20347;-82
2022/12/18 00:34:17;;;;;;;86.43;27.92;;;2.80;68.70;;;;;;7387482;19;20011;-78
2022/12/18 00:36:47;;;;;;;70.82;26.40;;;2.80;68.60;;;;;;7365454;19;20017;-78
2022/12/18 00:39:16;;;;;;;67.22;25.50;;;2.80;68.80;;;;;;7369544;19;20014;-78
2022/12/18 00:44:29;;;;;;;72.35;24.98;;;2.80;68.60;;;;;;7378211;19;20106;-81
2022/12/18 00:46:58;;;;;;;78.03;26.77;;;2.80;68.40;;;;;;7383320;19;20018;-80
2022/12/18 00:49:27;;;;;;;80.07;25.92;;;2.70;68.60;;;;;;7400284;19;20006;-81
2022/12/18 00:51:56;;;;;;;69.80;25.95;;;2.70;68.50;;;;;;7410141;19;20029;-86
2022/12/18 00:54:35;;;;;;;;;;;;;;;;;;;;;
2022/12/18 00:57:07;;;;;;;77.13;24.98;;;2.60;68.20;;;;;;7369813;19;20058;-89
2022/12/18 01:04:57;;;;;;;70.57;24.75;;;2.50;68.30;;;;;;7350439;19;20083;-85
2022/12/18 01:10:02;;;;;;;75.72;26.17;;;2.50;68.40;;;;;;7401457;19;20057;-89
2022/12/18 01:12:49;;;;;;;70.17;24.57;;;2.50;68.40;;;;;;7409200;19;20039;-90
2022/12/18 01:15:19;;;;;;;68.70;23.73;;;2.50;68.40;;;;;;7407951;19;20014;-90
2022/12/18 01:17:52;;;;;;;75.97;26.30;;;2.60;69.30;;;;;;7405930;19;20022;-89
2022/12/18 01:20:21;;;;;;;86.53;26.52;;;2.60;68.90;;;;;;7404966;19;20038;-90
2022/12/18 01:22:52;;;;;;;66.10;25.08;;;2.60;68.80;;;;;;7406154;19;20002;-88
2022/12/18 01:25:22;;;;;;;77.28;26.52;;;2.60;68.80;;;;;;7435682;19;20035;-89
2022/12/18 01:30:22;;;;;;;64.97;24.48;;;2.50;68.20;;;;;;7413782;19;20012;-90
2022/12/18 01:32:51;;;;;;;76.43;25.40;;;2.50;68.10;;;;;;7412647;19;20018;-88
2022/12/18 01:35:21;;;;;;;71.90;25.88;;;2.50;67.80;;;;;;7406726;19;20038;-89
2022/12/18 01:37:52;;;;;;;73.03;26.13;;;2.50;68.00;;;;;;7402015;19;20006;-89
2022/12/18 01:40:30;;;;;;;65.55;25.10;;;2.50;68.10;;;;;;7424521;19;20021;-89
2022/12/18 01:43:11;;;;;;;69.05;24.48;;;2.50;68.40;;;;;;7412289;19;20006;-91
2022/12/18 01:45:42;;;;;;;62.63;24.98;;;2.50;68.10;;;;;;7404137;19;20014;-90
2022/12/18 01:48:14;;;;;;;61.88;24.83;;;2.50;67.90;;;;;;7404845;19;20034;-90
2022/12/18 01:50:50;;;;;;;62.55;22.80;;;2.50;67.80;;;;;;7406650;19;20034;-91
2022/12/18 01:53:23;;;;;;;62.83;23.60;;;2.50;68.00;;;;;;7403745;19;20050;-90
2022/12/18 01:56:00;;;;;;;220.18;28.60;;;2.50;67.40;;;;;;7403806;19;20017;-90
2022/12/18 01:58:44;;;;;;;62.25;23.95;;;2.50;67.50;;;;;;7399938;19;20007;-89
2022/12/18 02:01:15;;;;;;;65.90;24.30;;;2.40;67.50;;;;;;7422842;19;20018;-90
2022/12/18 02:03:47;;;;;;;62.30;23.25;;;2.40;67.70;;;;;;7401045;19;20023;-90
2022/12/18 02:06:23;;;;;;;69.32;23.85;;;2.40;67.70;;;;;;7404004;19;20023;-90
2022/12/18 02:09:05;;;;;;;70.03;24.88;;;2.40;67.50;;;;;;7406781;19;20021;-91
2022/12/18 02:11:49;;;;;;;70.55;25.15;;;2.40;67.60;;;;;;7409654;19;20059;-89
2022/12/18 02:14:32;;;;;;;64.32;24.27;;;2.40;67.80;;;;;;7406577;19;20005;-89
2022/12/18 02:24:41;;;;;;;62.15;24.30;;;2.40;67.50;;;;;;7382930;19;20018;-81
2022/12/18 02:27:16;;;;;;;58.63;24.17;;;2.30;67.40;;;;;;7369871;19;20138;-78
2022/12/18 02:29:50;;;;;;;69.15;25.40;;;2.30;67.40;;;;;;7364637;19;20022;-78
2022/12/18 02:32:24;;;;;;;56.67;23.88;;;2.30;67.40;;;;;;7366808;19;20081;-79
2022/12/18 02:34:55;;;;;;;120.10;25.70;;;2.30;67.70;;;;;;7365729;19;20090;-79
2022/12/18 02:37:25;;;;;;;59.87;24.90;;;2.30;67.90;;;;;;7388218;19;20026;-78
2022/12/18 02:39:57;;;;;;;64.18;24.45;;;2.30;68.40;;;;;;7366273;19;20040;-79
2022/12/18 02:42:30;;;;;;;60.38;23.05;;;2.30;68.10;;;;;;7366670;19;20042;-79
2022/12/18 02:44:59;;;;;;;56.13;23.00;;;2.30;67.70;;;;;;7370293;19;20035;-79
2022/12/18 02:47:33;;;;;;;63.80;24.23;;;2.20;67.40;;;;;;7364062;19;20017;-79
2022/12/18 02:50:10;;;;;;;60.25;24.55;;;2.20;67.20;;;;;;7367018;19;20015;-79
2022/12/18 02:52:48;;;;;;;70.18;25.30;;;2.20;67.50;;;;;;7366903;19;20503;-78
2022/12/18 02:55:30;;;;;;;58.47;24.52;;;2.20;67.80;;;;;;7385373;19;20018;-79
2022/12/18 02:58:06;;;;;;;63.03;25.00;;;2.20;68.10;;;;;;7371866;19;20032;-79
2022/12/18 03:00:45;;;;;;;61.95;23.20;;;2.20;68.10;;;;;;7369294;19;20021;-79
2022/12/18 03:03:20;;;;;;;57.22;23.33;;;2.10;68.00;;;;;;7369626;19;20092;-79
2022/12/18 03:05:58;;;;;;;61.03;23.95;;;2.10;67.50;;;;;;7367963;19;20011;-78
2022/12/18 03:08:30;;;;;;;66.88;24.70;;;2.10;67.40;;;;;;7368830;19;20022;-78
2022/12/18 03:11:04;;;;;;;65.03;24.17;;;2.10;67.20;;;;;;7366524;19;20022;-79
2022/12/18 03:13:39;;;;;;;54.95;23.58;;;2.10;67.50;;;;;;7366481;19;20022;-78
2022/12/18 03:16:10;;;;;;;60.60;24.30;;;2.10;67.70;;;;;;7389727;19;20014;-78
2022/12/18 03:18:45;;;;;;;66.53;25.25;;;2.10;67.70;;;;;;7367029;19;20121;-78
2022/12/18 03:21:17;;;;;;;60.42;23.55;;;2.10;67.80;;;;;;7368432;19;20018;-78
2022/12/18 03:23:50;;;;;;;57.85;23.60;;;2.10;67.60;;;;;;7364554;19;20082;-78
2022/12/18 03:26:22;;;;;;;62.55;23.50;;;2.10;67.50;;;;;;7364754;19;20056;-78
2022/12/18 03:28:56;;;;;;;58.22;23.42;;;2.10;67.30;;;;;;7367148;19;20018;-78
2022/12/18 03:31:27;;;;;;;65.13;24.40;;;2.10;67.20;;;;;;7388484;19;20470;-78
2022/12/18 03:34:00;;;;;;;61.05;22.73;;;2.10;67.30;;;;;;7367091;19;20022;-79
2022/12/18 03:36:30;;;;;;;60.42;22.75;;;2.10;67.20;;;;;;7364569;19;20031;-78
2022/12/18 03:38:59;;;;;;;60.50;23.63;;;2.10;67.20;;;;;;7368614;19;20010;-78
2022/12/18 03:41:35;;;;;;;62.35;23.98;;;2.10;67.20;;;;;;7367213;19;20022;-78
2022/12/18 03:44:14;;;;;;;60.90;23.77;;;2.10;67.50;;;;;;7366982;19;20491;-78
2022/12/18 03:46:48;;;;;;;59.15;23.80;;;2.20;67.30;;;;;;7366766;19;20694;-78
2022/12/18 03:49:24;;;;;;;66.85;24.08;;;2.20;67.30;;;;;;7388305;19;20031;-78
2022/12/18 03:51:57;;;;;;;62.38;24.48;;;2.10;67.20;;;;;;7366640;19;20027;-78
2022/12/18 03:54:28;;;;;;;60.85;22.30;;;2.10;66.90;;;;;;7369011;19;20022;-79
2022/12/18 03:57:02;;;;;;;65.47;24.58;;;2.10;67.00;;;;;;7368899;19;20006;-78
2022/12/18 03:59:34;;;;;;;146.15;25.92;;;2.10;67.30;;;;;;7366216;19;20035;-78
2022/12/18 04:02:06;;;;;;;60.00;23.63;;;2.10;67.30;;;;;;7367348;19;20412;-78
2022/12/18 04:04:36;;;;;;;54.90;22.60;;;2.10;67.30;;;;;;7365326;19;20024;-78
2022/12/18 04:07:07;;;;;;;60.47;22.88;;;2.10;67.20;;;;;;7389708;19;20048;-78
2022/12/18 04:09:38;;;;;;;65.97;23.90;;;2.10;67.10;;;;;;7367583;19;20011;-78
2022/12/18 04:12:08;;;;;;;59.15;23.40;;;2.10;67.20;;;;;;7363006;19;20018;-78
2022/12/18 04:14:39;;;;;;;64.13;24.80;;;2.10;67.20;;;;;;7365457;19;20081;-78
2022/12/18 04:17:08;;;;;;;62.75;23.80;;;2.10;67.40;;;;;;7367132;19;20088;-78
2022/12/18 04:19:37;;;;;;;65.55;23.38;;;2.10;67.20;;;;;;7366594;19;20308;-77
2022/12/18 04:22:07;;;;;;;64.30;24.42;;;2.10;67.10;;;;;;7388657;19;20026;-78
2022/12/18 04:24:36;;;;;;;60.28;23.15;;;2.10;67.10;;;;;;7367045;19;20129;-78
2022/12/18 04:27:05;;;;;;;60.15;22.77;;;2.10;67.00;;;;;;7366271;19;20106;-79
2022/12/18 04:29:34;;;;;;;62.80;24.10;;;2.10;67.00;;;;;;7366840;19;20105;-79
2022/12/18 04:32:05;;;;;;;61.90;23.02;;;2.10;66.90;;;;;;7367959;19;20642;-78
2022/12/18 04:34:34;;;;;;;57.92;22.77;;;2.10;66.90;;;;;;7367487;19;20379;-79
2022/12/18 04:37:03;;;;;;;65.85;23.60;;;2.10;66.90;;;;;;7392095;19;20638;-79
2022/12/18 04:39:32;;;;;;;64.60;23.27;;;2.00;66.90;;;;;;7371990;19;20399;-78
2022/12/18 04:42:00;;;;;;;54.58;23.08;;;2.10;67.10;;;;;;7372535;19;20010;-78
2022/12/18 04:44:29;;;;;;;61.95;24.58;;;2.00;66.80;;;;;;7371189;19;20034;-77
2022/12/18 04:46:58;;;;;;;62.53;23.02;;;2.00;66.90;;;;;;7370518;19;20117;-77
2022/12/18 04:49:29;;;;;;;65.00;22.95;;;2.00;66.80;;;;;;7376337;19;20014;-78
2022/12/18 04:51:58;;;;;;;61.83;23.10;;;2.00;66.90;;;;;;7392072;19;20022;-78
2022/12/18 04:54:27;;;;;;;71.53;23.70;;;2.00;67.00;;;;;;7372308;19;20063;-78
2022/12/18 04:56:56;;;;;;;54.22;22.63;;;2.00;67.10;;;;;;7375750;19;20026;-78
2022/12/18 04:59:25;;;;;;;55.83;24.27;;;2.00;67.10;;;;;;7370038;19;20026;-78
2022/12/18 05:01:53;;;;;;;65.72;23.10;;;1.90;66.80;;;;;;7375607;19;20014;-78
2022/12/18 05:04:23;;;;;;;54.35;22.27;;;1.90;66.80;;;;;;7393625;19;20094;-78
2022/12/18 05:06:54;;;;;;;60.85;21.98;;;1.90;66.50;;;;;;7371837;19;20023;-76
2022/12/18 05:09:23;;;;;;;57.33;23.00;;;1.90;66.40;;;;;;7373505;19;20022;-78
2022/12/18 05:11:52;;;;;;;59.25;23.58;;;1.90;66.30;;;;;;7373171;19;20094;-78
2022/12/18 05:14:21;;;;;;;55.50;22.65;;;1.90;66.30;;;;;;7377645;19;20027;-79
2022/12/18 05:16:50;;;;;;;60.03;23.95;;;1.90;66.50;;;;;;7375817;19;20062;-78
2022/12/18 05:19:19;;;;;;;54.10;21.98;;;1.90;66.70;;;;;;7396434;19;20019;-78
2022/12/18 05:21:48;;;;;;;64.82;25.70;;;1.90;66.90;;;;;;7376162;19;20014;-78
2022/12/18 05:24:19;;;;;;;68.03;23.13;;;1.80;66.90;;;;;;7374361;19;20011;-78
2022/12/18 05:26:48;;;;;;;59.58;23.02;;;1.80;67.10;;;;;;7374369;19;20052;-78
2022/12/18 05:29:17;;;;;;;71.35;25.13;;;1.90;66.90;;;;;;7374653;19;20138;-78
2022/12/18 05:31:46;;;;;;;64.05;22.52;;;1.90;66.60;;;;;;7375805;19;20065;-78
2022/12/18 05:34:14;;;;;;;61.90;23.48;;;1.90;66.20;;;;;;7395195;19;20082;-78
2022/12/18 05:36:43;;;;;;;67.78;23.40;;;1.90;66.20;;;;;;7371678;19;20054;-78
2022/12/18 05:39:13;;;;;;;70.35;23.67;;;1.90;66.50;;;;;;7373259;19;20098;-79
2022/12/18 05:41:44;;;;;;;58.13;22.83;;;1.90;67.20;;;;;;7371532;19;20026;-78
2022/12/18 05:44:13;;;;;;;57.78;22.02;;;1.90;67.50;;;;;;7373605;19;20058;-77
2022/12/18 05:46:42;;;;;;;60.20;23.25;;;2.00;67.40;;;;;;7371993;19;20433;-78
2022/12/18 05:49:11;;;;;;;58.38;22.55;;;1.90;67.10;;;;;;7391372;19;20014;-78
2022/12/18 05:51:39;;;;;;;52.65;21.27;;;1.90;66.90;;;;;;7372334;19;20018;-78
2022/12/18 05:54:08;;;;;;;67.50;22.63;;;1.90;66.80;;;;;;7371475;19;20046;-78
2022/12/18 05:56:37;;;;;;;62.65;22.52;;;2.00;66.90;;;;;;7371906;19;20018;-78
2022/12/18 05:59:09;;;;;;;129.98;24.50;;;2.00;67.10;;;;;;7371253;19;20449;-78
2022/12/18 06:01:38;;;;;;;55.15;22.42;;;2.00;67.10;;;;;;7369951;19;20025;-77
2022/12/18 06:04:07;;;;;;;63.72;23.55;;;2.10;67.20;;;;;;7393519;19;20018;-77
2022/12/18 06:06:36;;;;;;;64.25;22.55;;;2.10;67.20;;;;;;7371693;19;20090;-77
2022/12/18 06:09:08;;;;;;;59.50;21.33;;;2.10;67.10;;;;;;7370800;19;20389;-77
2022/12/18 06:11:39;;;;;;;65.55;23.88;;;2.10;67.10;;;;;;7372552;19;20337;-77
2022/12/18 06:14:12;;;;;;;69.57;23.25;;;2.10;67.10;;;;;;7372924;19;20045;-77
2022/12/18 06:16:41;;;;;;;56.30;21.42;;;2.10;67.20;;;;;;7371401;19;20022;-78
2022/12/18 06:19:10;;;;;;;61.35;22.88;;;2.10;68.10;;;;;;7390584;19;20038;-77
2022/12/18 06:21:39;;;;;;;57.60;23.25;;;2.10;67.50;;;;;;7371873;19;20036;-77
2022/12/18 06:24:08;;;;;;;55.38;21.67;;;2.10;67.30;;;;;;7369361;19;20688;-78
2022/12/18 06:26:39;;;;;;;55.55;21.85;;;2.10;67.20;;;;;;7371560;19;20015;-77
2022/12/18 06:29:11;;;;;;;54.08;23.00;;;2.10;67.10;;;;;;7372999;19;20029;-78
2022/12/18 06:31:40;;;;;;;60.67;21.38;;;2.10;66.90;;;;;;7372640;19;20026;-78
2022/12/18 06:34:08;;;;;;;58.45;21.15;;;2.10;66.80;;;;;;7396363;19;20022;-78
2022/12/18 06:36:37;;;;;;;55.05;23.35;;;2.10;66.90;;;;;;7374996;19;20014;-77
2022/12/18 06:39:06;;;;;;;57.38;22.02;;;2.10;67.50;;;;;;7372288;19;20018;-78
2022/12/18 06:41:35;;;;;;;52.80;21.25;;;2.00;67.70;;;;;;7369089;19;20025;-78
2022/12/18 06:44:03;;;;;;;70.28;21.50;;;2.10;67.70;;;;;;7371255;19;20076;-77
2022/12/18 06:46:35;;;;;;;59.85;22.63;;;2.00;67.60;;;;;;7372232;19;20035;-78
2022/12/18 06:49:03;;;;;;;57.80;22.20;;;2.10;68.00;;;;;;7392779;19;20035;-78
2022/12/18 06:51:32;;;;;;;51.85;18.98;;;2.10;67.00;;;;;;7374688;19;20014;-78
2022/12/18 06:54:01;;;;;;;58.30;20.75;;;2.10;67.00;;;;;;7372953;19;20018;-77
2022/12/18 06:56:30;;;;;;;50.58;20.15;;;2.10;66.90;;;;;;7371433;19;20525;-77
2022/12/18 06:58:59;;;;;;;55.55;20.80;;;2.00;67.30;;;;;;7371151;19;20014;-78
2022/12/18 07:01:28;;;;;;;51.47;21.08;;;2.10;67.10;;;;;;7367520;19;20052;-78
2022/12/18 07:04:00;;;;;;;64.65;23.65;;;2.00;67.10;;;;;;7389459;19;20022;-78
2022/12/18 07:06:29;;;;;;;63.42;21.77;;;2.00;67.00;;;;;;7371193;19;20040;-78
2022/12/18 07:08:57;;;;;;;54.63;21.05;;;2.00;66.80;;;;;;7370971;19;20040;-78
2022/12/18 07:11:26;;;;;;;54.67;22.23;;;2.00;66.60;;;;;;7374731;19;20027;-78
2022/12/18 07:13:55;;;;;;;56.03;22.98;;;2.00;66.60;;;;;;7375545;19;20025;-78
2022/12/18 07:16:25;;;;;;;53.20;21.08;;;2.00;66.80;;;;;;7395936;19;20023;-78
2022/12/18 07:18:53;;;;;;;68.50;22.80;;;2.00;67.00;;;;;;7372791;19;20022;-78
2022/12/18 07:21:26;;;;;;;58.42;22.42;;;2.00;67.20;;;;;;7368912;19;20379;-77
2022/12/18 07:23:55;;;;;;;57.55;21.08;;;1.90;67.40;;;;;;7370751;19;20011;-78
2022/12/18 07:26:26;;;;;;;53.13;21.33;;;1.90;67.10;;;;;;7368976;19;20128;-80
2022/12/18 07:28:58;;;;;;;54.53;21.23;;;1.90;66.70;;;;;;7371550;19;20026;-78
2022/12/18 07:31:28;;;;;;;54.58;21.08;;;1.90;66.60;;;;;;7368724;19;20024;-77
2022/12/18 07:33:57;;;;;;;59.25;21.55;;;2.00;66.70;;;;;;7389903;19;20796;-79
2022/12/18 07:36:28;;;;;;;50.53;21.02;;;2.00;67.00;;;;;;7370309;19;20090;-78
2022/12/18 07:38:57;;;;;;;;;;;1.90;66.90;;;;;;7370384;19;20043;-78
2022/12/18 07:41:26;;;;;;;52.15;19.98;;;2.00;67.50;;;;;;7368361;19;19914;-77
2022/12/18 07:43:55;;;;;;;63.88;22.08;;;2.00;67.00;;;;;;7370208;19;20182;-78
2022/12/18 07:46:23;;;;;;;59.85;21.17;;;2.00;67.10;;;;;;7394143;19;20446;-79
2022/12/18 07:48:52;;;;;;;55.72;21.80;;;2.00;66.80;;;;;;7373259;19;20014;-79
2022/12/18 07:51:21;;;;;;;56.78;21.17;;;2.00;66.60;;;;;;7371505;19;20018;-79
2022/12/18 07:53:53;;;;;;;53.38;21.65;;;2.10;66.60;;;;;;7367940;19;20082;-79
2022/12/18 07:56:22;;;;;;;64.65;22.80;;;2.00;66.50;;;;;;7369415;19;20092;-78
2022/12/18 07:58:51;;;;;;;57.42;22.10;;;2.00;66.70;;;;;;7369534;19;20019;-79
2022/12/18 08:01:20;;;;;;;55.95;22.02;;;2.10;66.90;;;;;;7393767;19;20026;-78
2022/12/18 08:03:48;;;;;;;63.55;23.05;;;2.10;67.10;;;;;;7374227;19;20078;-78
2022/12/18 08:06:17;;;;;;;61.00;21.30;;;2.10;66.70;;;;;;7374054;19;20014;-78
2022/12/18 08:08:46;;;;;;;53.28;21.38;;;2.10;66.60;;;;;;7373288;19;20110;-79
2022/12/18 08:11:21;;;;;;;55.30;21.52;;;2.10;66.30;;;;;;7374696;19;20019;-78
2022/12/18 08:13:49;;;;;;;76.35;22.50;;;2.10;66.50;;;;;;7375496;19;20030;-79
2022/12/18 08:16:19;;;;;;;57.92;21.77;;;2.10;66.60;;;;;;7395804;19;20022;-79
2022/12/18 08:18:48;;;;;;;57.10;22.67;;;2.10;66.70;;;;;;7375784;19;20042;-79
2022/12/18 08:21:20;;;;;;;57.50;21.73;;;2.20;66.80;;;;;;7375148;19;20022;-79
2022/12/18 08:23:49;;;;;;;51.20;21.83;;;2.10;66.50;;;;;;7374934;19;20604;-79
2022/12/18 08:26:22;;;;;;;61.85;21.60;;;2.20;66.70;;;;;;7376164;19;20082;-77
2022/12/18 08:28:51;;;;;;;65.47;22.33;;;2.20;66.50;;;;;;7376031;19;20018;-77
2022/12/18 08:31:20;;;;;;;57.60;22.17;;;2.20;66.30;;;;;;7397737;19;20035;-77
2022/12/18 08:33:52;;;;;;;55.22;21.35;;;2.30;66.50;;;;;;7375349;19;20022;-77
2022/12/18 08:36:21;;;;;;;53.95;21.02;;;2.30;66.30;;;;;;7375785;19;20642;-78
2022/12/18 08:38:50;;;;;;;55.25;20.75;;;2.30;66.50;;;;;;7376353;19;20022;-79
2022/12/18 08:41:21;;;;;;;57.65;22.88;;;2.30;66.20;;;;;;7375600;19;20018;-79
2022/12/18 08:46:37;;;;;;;58.55;21.95;;;2.40;66.20;;;;;;7378179;19;20033;-79
2022/12/18 08:49:06;;;;;;;53.40;21.77;;;2.40;66.10;;;;;;7398419;19;20433;-79
2022/12/18 08:51:35;;;;;;;60.50;21.95;;;2.40;66.10;;;;;;7375458;19;20404;-79
2022/12/18 08:54:05;;;;;;;58.40;22.25;;;2.40;66.20;;;;;;7387249;19;20042;-79
2022/12/18 08:56:37;;;;;;;60.00;22.33;;;2.40;66.00;;;;;;7392496;19;20031;-79
2022/12/18 08:59:06;;;;;;;55.65;22.75;;;2.40;66.20;;;;;;7380123;19;20086;-79
2022/12/18 09:01:35;;;;;;;56.08;21.73;;;2.50;66.20;;;;;;7378229;19;20437;-79
2022/12/18 09:04:04;;;;;;;59.00;22.40;;;2.50;66.10;;;;;;7403649;19;20082;-79
2022/12/18 09:06:33;;;;;;;61.15;23.10;;;2.50;66.10;;;;;;7387738;19;20026;-80
2022/12/18 09:09:02;;;;;;;57.33;23.63;;;2.60;66.30;;;;;;7385287;19;20458;-78
2022/12/18 09:11:32;;;;;;;55.30;22.33;;;2.70;66.30;;;;;;7382434;19;20014;-78
2022/12/18 09:14:04;;;;;;;54.95;23.92;;;2.70;66.40;;;;;;7379644;19;20082;-78
2022/12/18 09:16:34;;;;;;;63.50;23.67;;;2.70;66.70;;;;;;7374675;19;20086;-78
2022/12/18 09:19:05;;;;;;;55.25;22.50;;;2.80;66.30;;;;;;7394191;19;20032;-78
2022/12/18 09:21:38;;;;;;;57.47;23.25;;;2.80;65.90;;;;;;7372716;19;20015;-78
2022/12/18 09:24:08;;;;;;;54.20;21.70;;;2.80;65.70;;;;;;7374439;19;20105;-78
2022/12/18 09:26:37;;;;;;;65.80;24.85;;;2.80;65.70;;;;;;7376258;19;20186;-78
2022/12/18 09:29:09;;;;;;;64.97;24.95;;;2.90;66.00;;;;;;7375399;19;20022;-78
2022/12/18 09:31:39;;;;;;;65.22;24.15;;;2.90;66.20;;;;;;7375504;19;20153;-77
2022/12/18 09:34:09;;;;;;;68.85;24.55;;;2.90;66.10;;;;;;7400033;19;20019;-78
2022/12/18 09:36:38;;;;;;;45.47;17.63;;;3.00;66.20;;;;;;7381032;19;20053;-78
2022/12/18 09:39:07;;;;;;;62.05;23.20;;;3.00;65.80;;;;;;7387005;19;20272;-78
2022/12/18 09:41:47;;;;;;;58.60;23.23;;;2.90;65.50;;;;;;7387516;19;20059;-78
2022/12/18 09:44:24;;;;;;;65.05;23.08;;;3.00;65.40;;;;;;7372413;19;20018;-78
2022/12/18 09:46:57;;;;;;;59.72;23.42;;;2.90;65.40;;;;;;7374580;19;20014;-77
2022/12/18 09:49:29;;;;;;;61.08;24.40;;;3.00;65.70;;;;;;7390599;19;20477;-78
2022/12/18 09:52:00;;;;;;;62.83;24.08;;;3.00;65.90;;;;;;7395726;19;20446;-79
2022/12/18 09:54:35;;;;;;;64.47;24.08;;;3.10;66.30;;;;;;7374761;19;20010;-78
2022/12/18 09:57:04;;;;;;;62.10;24.58;;;3.10;66.30;;;;;;7373625;19;20014;-79
2022/12/18 09:59:39;;;;;;;64.65;24.83;;;3.10;66.10;;;;;;7370098;19;20018;-79
2022/12/18 10:02:20;;;;;;;60.03;24.30;;;3.20;66.10;;;;;;7371495;19;20052;-77
2022/12/18 10:04:53;;;;;;;;;;;3.20;65.80;;;;;;7372107;19;20015;-77
2022/12/18 10:07:31;;;;;;;54.78;22.88;;;3.20;65.80;;;;;;7393225;19;20488;-77
2022/12/18 10:10:09;;;;;;;60.47;24.40;;;3.20;65.50;;;;;;7373515;19;20081;-78
2022/12/18 10:12:46;;;;;;;126.03;25.40;;;3.30;65.80;;;;;;7372483;19;20022;-77
2022/12/18 10:15:25;;;;;;;55.47;21.83;;;3.30;65.90;;;;;;7371208;19;20022;-78
2022/12/18 10:18:01;;;;;;;60.13;25.52;;;3.30;66.10;;;;;;7371630;19;20019;-78
2022/12/18 10:20:45;;;;;;;60.28;23.60;;;3.40;66.10;;;;;;7372799;19;20030;-77
2022/12/18 10:23:21;;;;;;;58.65;23.95;;;3.50;65.80;;;;;;7371083;19;20022;-77
2022/12/18 10:25:56;;;;;;;67.95;24.73;;;3.50;65.60;;;;;;7370755;19;20043;-79
2022/12/18 10:28:27;;;;;;;61.67;24.70;;;3.60;65.50;;;;;;7393836;19;20007;-77
2022/12/18 10:30:58;;;;;;;58.45;23.20;;;3.60;65.10;;;;;;7371583;19;20038;-79
2022/12/18 10:33:32;;;;;;;57.97;24.80;;;3.60;65.30;;;;;;7368549;19;20672;-79
2022/12/18 10:36:01;;;;;;;65.85;23.95;;;3.70;65.40;;;;;;7372708;19;20038;-79
2022/12/18 10:38:31;;;;;;;67.32;25.63;;;3.70;65.50;;;;;;7371392;19;20323;-79
2022/12/18 10:41:02;;;;;;;61.03;23.33;;;3.70;65.20;;;;;;7372417;19;20025;-79
2022/12/18 10:43:33;;;;;;;67.70;26.08;;;3.80;65.20;;;;;;7370837;19;20776;-79
2022/12/18 10:46:17;;;;;;;54.47;23.33;;;3.80;65.30;;;;;;7390419;19;20029;-79
2022/12/18 10:48:56;;;;;;;54.70;24.25;;;3.80;65.10;;;;;;7372804;19;20353;-79
2022/12/18 10:51:27;;;;;;;58.85;24.60;;;3.80;64.90;;;;;;7373665;19;20042;-79
2022/12/18 10:54:00;;;;;;;;;;;3.80;65.20;;;;;;7374239;19;20034;-79
2022/12/18 10:56:30;;;;;;;59.97;23.08;;;3.90;65.60;;;;;;7371734;19;19926;-79
2022/12/18 10:59:03;;;;;;;62.42;24.88;;;3.90;65.80;;;;;;7370740;19;20469;-78
2022/12/18 11:01:51;;;;;;;65.95;25.33;;;4.00;65.60;;;;;;7371154;19;20029;-77
2022/12/18 11:04:24;;;;;;;63.25;24.75;;;4.00;65.40;;;;;;7394383;19;20328;-78
2022/12/18 11:07:01;;;;;;;52.97;23.05;;;4.00;65.20;;;;;;7370690;19;20074;-78
2022/12/18 11:09:31;;;;;;;71.00;28.73;;;4.00;65.10;;;;;;7370386;19;20441;-78
2022/12/18 11:12:02;;;;;;;68.80;25.15;;;4.10;65.40;;;;;;7372323;19;20014;-78
2022/12/18 11:14:34;;;;;;;61.63;24.60;;;4.00;65.30;;;;;;7374997;19;20547;-77
2022/12/18 11:17:06;;;;;;;69.63;26.30;;;4.00;65.50;;;;;;7372601;19;20383;-78
2022/12/18 11:19:37;;;;;;;66.25;25.30;;;4.00;65.40;;;;;;7374188;19;20026;-78
2022/12/18 11:22:22;;;;;;;57.20;23.98;;;4.00;65.20;;;;;;7395930;19;20098;-78
2022/12/18 11:24:57;;;;;;;66.05;24.33;;;4.00;65.10;;;;;;7377145;19;20059;-78
2022/12/18 11:27:26;;;;;;;64.32;23.88;;;4.10;66.00;;;;;;7382548;19;20070;-81
2022/12/18 11:29:55;;;;;;;74.22;22.50;;;4.10;66.10;;;;;;7381421;19;20026;-81
2022/12/18 11:32:46;;;;;;;63.13;24.23;;;4.10;66.00;;;;;;7376582;19;20014;-81
2022/12/18 11:35:40;;;;;;;54.20;22.60;;;4.10;66.10;;;;;;7380398;19;20018;-78
2022/12/18 11:38:18;;;;;;;61.55;24.17;;;4.10;65.80;;;;;;7366787;19;20238;-75
2022/12/18 11:40:50;;;;;;;66.25;25.05;;;4.20;65.40;;;;;;7369393;19;20064;-75
2022/12/18 11:43:25;;;;;;;62.40;25.25;;;4.20;65.30;;;;;;7387162;19;20019;-76
2022/12/18 11:45:59;;;;;;;57.85;25.10;;;4.20;65.20;;;;;;7365045;19;20017;-75
2022/12/18 11:48:35;;;;;;;65.50;26.25;;;4.30;65.50;;;;;;7368896;19;20344;-76
2022/12/18 11:51:08;;;;;;;69.95;26.58;;;4.30;65.80;;;;;;7369022;19;20018;-76
2022/12/18 12:03:58;;;;;;;70.93;28.35;;;4.40;65.40;;;;;;7362987;19;20039;-76
2022/12/18 12:06:38;;;;;;;66.18;27.45;;;4.50;65.50;;;;;;7364852;19;20019;-76
2022/12/18 12:09:19;;;;;;;71.10;25.67;;;4.50;65.60;;;;;;7365093;19;20557;-78
2022/12/18 12:11:57;;;;;;;;;;;4.60;65.80;;;;;;7364182;19;20025;-77
2022/12/18 12:14:42;;;;;;;60.60;23.95;;;4.60;65.80;;;;;;7365776;19;20203;-77
2022/12/18 12:17:24;;;;;;;55.33;23.17;;;4.60;65.70;;;;;;7364364;19;20022;-77
2022/12/18 12:20:11;;;;;;;59.90;23.90;;;4.60;65.40;;;;;;7363894;19;20457;-77
2022/12/18 12:22:51;;;;;;;70.53;24.10;;;4.60;65.00;;;;;;7363608;19;20813;-77
2022/12/18 12:25:34;;;;;;;63.15;25.10;;;4.60;65.10;;;;;;7386361;19;20022;-76
2022/12/18 12:28:16;;;;;;;52.95;23.60;;;4.60;65.20;;;;;;7367021;19;20766;-75
2022/12/18 12:31:00;;;;;;;66.18;27.00;;;4.70;65.50;;;;;;7365930;19;20471;-76
2022/12/18 12:33:38;;;;;;;60.80;25.33;;;4.70;65.80;;;;;;7360984;19;20644;-76
2022/12/18 12:36:25;;;;;;;65.18;25.08;;;4.80;66.00;;;;;;7367120;19;20433;-75
2022/12/18 12:39:09;;;;;;;60.40;25.48;;;4.80;65.60;;;;;;7364238;19;20068;-75
2022/12/18 12:44:35;;;;;;;64.10;25.50;;;4.90;65.40;;;;;;7361529;19;20015;-76
2022/12/18 12:47:10;;;;;;;67.43;25.90;;;4.90;65.30;;;;;;7363125;19;20010;-76
2022/12/18 12:49:47;;;;;;;62.17;25.95;;;5.00;66.40;;;;;;7363682;19;20086;-76
2022/12/18 12:52:25;;;;;;;58.58;25.48;;;5.00;65.60;;;;;;7384629;19;20026;-76
2022/12/18 12:54:54;;;;;;;63.67;26.38;;;5.10;65.70;;;;;;7365809;19;20133;-77
2022/12/18 12:57:28;;;;;;;63.55;26.00;;;5.10;65.40;;;;;;7368083;19;20021;-77
2022/12/18 13:00:06;;;;;;;64.88;25.83;;;5.10;65.30;;;;;;7374443;19;20018;-76
2022/12/18 13:02:39;;;;;;;61.10;25.30;;;5.20;65.30;;;;;;7371822;19;20034;-76
2022/12/18 13:05:20;;;;;;;65.30;25.92;;;5.20;65.30;;;;;;7372924;19;20018;-77
2022/12/18 13:07:56;;;;;;;57.53;24.00;;;5.20;65.40;;;;;;7368461;19;20021;-76
2022/12/18 13:10:36;;;;;;;63.97;25.45;;;5.20;65.70;;;;;;7392498;19;20270;-75
2022/12/18 13:13:06;;;;;;;56.03;23.30;;;5.20;65.60;;;;;;7372047;19;20015;-75
2022/12/18 13:15:42;;;;;;;58.25;24.63;;;5.10;65.50;;;;;;7370310;19;20022;-75
2022/12/18 13:18:23;;;;;;;59.53;24.23;;;5.10;65.80;;;;;;7371355;19;20027;-75
2022/12/18 13:21:03;;;;;;;47.20;17.50;;;5.10;66.00;;;;;;7369489;19;20089;-76
2022/12/18 13:23:39;;;;;;;63.42;25.40;;;5.10;65.90;;;;;;7372837;19;20470;-77
2022/12/18 13:26:38;;;;;;;66.20;26.48;;;5.10;66.10;;;;;;7373424;19;20734;-77
2022/12/18 13:29:07;;;;;;;60.15;24.80;;;5.10;66.20;;;;;;7367962;19;20972;-76
2022/12/18 13:32:03;;;;;;;63.53;25.05;;;5.10;66.20;;;;;;7368014;19;20062;-75
2022/12/18 13:34:33;;;;;;;55.33;23.48;;;5.10;66.20;;;;;;7366403;19;20018;-75
2022/12/18 13:37:41;;;;;;;57.40;24.15;;;5.10;66.30;;;;;;7388698;19;20018;-75
2022/12/18 13:40:55;;;;;;;67.95;23.67;;;5.10;66.60;;;;;;7369394;19;20039;-75
2022/12/18 13:43:35;;;;;;;59.58;24.52;;;5.10;67.10;;;;;;7267113;19;2004731;-76